Time;durP1;ratioP1;P1;durP2;ratioP2;P2;SDS_P1;SDS_P2;PMS_P1;PMS_P2;Temp;Humidity;BMP_temperature;BMP_pressure;BME280_temperature;BME280_humidity;BME280_pressure;Samples;Min_cycle;Max_cycle;Signal;HPM_P1;HPM_P2
2023/10/27 00:01:41;;;;;;;1.92;1.40;;;10.20;99.90;;;;;;5027751;28;20045;-60
2023/10/27 00:04:07;;;;;;;2.47;1.48;;;10.20;99.90;;;;;;5033204;28;20459;-59
2023/10/27 00:06:33;;;;;;;3.22;1.45;;;10.10;99.90;;;;;;5033426;28;20116;-59
2023/10/27 00:08:59;;;;;;;3.58;1.60;;;10.10;99.90;;;;;;5033166;28;20057;-59
2023/10/27 00:11:25;;;;;;;2.63;1.52;;;10.00;99.90;;;;;;5033116;28;20048;-56
2023/10/27 00:13:51;;;;;;;3.05;1.67;;;10.00;99.90;;;;;;5032840;28;20029;-60
2023/10/27 00:16:17;;;;;;;3.47;1.70;;;10.00;99.90;;;;;;5033022;28;20108;-60
2023/10/27 00:18:43;;;;;;;2.28;1.30;;;9.90;99.90;;;;;;5032935;28;20160;-59
2023/10/27 00:21:09;;;;;;;2.35;1.25;;;9.90;99.90;;;;;;5032980;28;20476;-59
2023/10/27 00:23:35;;;;;;;3.03;1.23;;;9.90;99.90;;;;;;5032906;28;20439;-60
2023/10/27 00:26:01;;;;;;;3.53;1.35;;;9.80;99.90;;;;;;5032657;28;20067;-58
2023/10/27 00:28:27;;;;;;;2.55;1.48;;;9.80;99.90;;;;;;5032882;28;20117;-60
2023/10/27 00:30:52;;;;;;;3.90;1.52;;;9.80;99.90;;;;;;5032632;28;20112;-60
2023/10/27 00:33:18;;;;;;;2.67;1.48;;;9.70;99.90;;;;;;5032910;28;20061;-60
2023/10/27 00:35:44;;;;;;;3.10;1.50;;;9.60;99.90;;;;;;5032714;28;20476;-61
2023/10/27 00:38:09;;;;;;;3.58;1.40;;;9.70;99.90;;;;;;5032389;28;20124;-59
2023/10/27 00:40:35;;;;;;;3.88;1.35;;;9.70;99.90;;;;;;5032453;28;20421;-56
2023/10/27 00:43:04;;;;;;;4.95;1.70;;;9.80;99.90;;;;;;5032511;28;20030;-61
2023/10/27 00:45:30;;;;;;;2.88;1.40;;;9.80;99.90;;;;;;5032786;28;20057;-59
2023/10/27 00:47:55;;;;;;;2.72;1.75;;;9.80;99.90;;;;;;5032432;28;20551;-60
2023/10/27 00:50:21;;;;;;;2.97;1.33;;;9.90;99.90;;;;;;5032339;28;20093;-61
2023/10/27 00:52:48;;;;;;;2.42;1.35;;;9.90;99.90;;;;;;5032351;28;20397;-60
2023/10/27 00:55:14;;;;;;;3.35;1.25;;;9.90;99.90;;;;;;5032098;28;20029;-60
2023/10/27 00:57:41;;;;;;;3.13;1.48;;;10.00;99.90;;;;;;5032216;28;20034;-60
2023/10/27 01:00:08;;;;;;;3.90;1.63;;;10.00;99.90;;;;;;5030834;28;20558;-60
2023/10/27 01:02:33;;;;;;;3.50;1.45;;;9.90;99.90;;;;;;5032234;28;20507;-60
2023/10/27 01:04:59;;;;;;;4.90;1.50;;;9.90;99.90;;;;;;5032543;28;20029;-61
2023/10/27 01:07:25;;;;;;;2.40;1.40;;;9.90;99.90;;;;;;5031908;28;20052;-61
2023/10/27 01:09:51;;;;;;;4.28;1.27;;;9.90;99.90;;;;;;5032031;28;20060;-60
2023/10/27 01:12:16;;;;;;;3.40;1.20;;;9.90;99.90;;;;;;5032089;28;20045;-61
2023/10/27 01:14:43;;;;;;;2.08;1.10;;;9.90;99.90;;;;;;5032010;28;20064;-61
2023/10/27 01:17:08;;;;;;;2.30;0.93;;;9.90;99.90;;;;;;5031757;28;20060;-60
2023/10/27 01:19:36;;;;;;;3.28;1.10;;;9.90;99.90;;;;;;5031835;28;20069;-60
2023/10/27 01:22:03;;;;;;;4.20;1.27;;;9.90;99.90;;;;;;5031752;28;20067;-61
2023/10/27 01:24:28;;;;;;;3.75;1.25;;;9.90;99.90;;;;;;5031313;28;20100;-61
2023/10/27 01:26:55;;;;;;;4.53;1.35;;;9.90;99.90;;;;;;5031631;28;20108;-61
2023/10/27 01:29:22;;;;;;;1.98;1.10;;;9.90;99.90;;;;;;5031431;28;20075;-62
2023/10/27 01:31:48;;;;;;;3.35;1.30;;;9.90;99.90;;;;;;5031376;28;20021;-63
2023/10/27 01:34:14;;;;;;;6.57;1.90;;;9.90;99.90;;;;;;5031569;28;20026;-63
2023/10/27 01:36:40;;;;;;;3.20;1.40;;;9.90;99.90;;;;;;5031538;28;20022;-62
2023/10/27 01:39:06;;;;;;;3.00;1.63;;;9.90;99.90;;;;;;5031294;28;20091;-61
2023/10/27 01:41:31;;;;;;;2.92;1.58;;;9.80;99.90;;;;;;5031547;28;20036;-63
2023/10/27 01:43:57;;;;;;;2.53;1.27;;;9.90;99.90;;;;;;5030100;28;20013;-60
2023/10/27 01:46:22;;;;;;;2.05;1.10;;;9.90;99.90;;;;;;5031315;28;20414;-60
2023/10/27 01:48:48;;;;;;;3.50;1.30;;;9.90;99.90;;;;;;5031118;28;20029;-61
2023/10/27 01:51:14;;;;;;;2.05;1.10;;;9.90;99.90;;;;;;5031127;28;20553;-61
2023/10/27 01:53:40;;;;;;;2.50;1.40;;;9.80;99.90;;;;;;5031027;28;20139;-61
2023/10/27 01:56:06;;;;;;;3.22;1.55;;;9.80;99.90;;;;;;5013235;28;20025;-62
2023/10/27 01:58:31;;;;;;;1.60;0.98;;;9.90;99.90;;;;;;5030927;28;20069;-61
2023/10/27 02:00:57;;;;;;;4.45;1.65;;;10.00;99.90;;;;;;5030924;28;20025;-60
2023/10/27 02:03:22;;;;;;;3.00;1.42;;;9.90;99.90;;;;;;5031121;28;20027;-60
2023/10/27 02:05:48;;;;;;;4.65;1.50;;;9.90;99.90;;;;;;5031013;28;20026;-63
2023/10/27 02:08:14;;;;;;;1.63;1.10;;;9.90;99.90;;;;;;5030963;28;20665;-61
2023/10/27 02:10:39;;;;;;;3.45;1.10;;;10.00;99.90;;;;;;5030579;28;20026;-61
2023/10/27 02:13:05;;;;;;;4.18;1.20;;;9.90;99.90;;;;;;5030908;28;20029;-60
2023/10/27 02:15:31;;;;;;;2.30;1.10;;;10.00;99.90;;;;;;5030896;28;20105;-60
2023/10/27 02:17:56;;;;;;;3.10;1.13;;;10.10;99.90;;;;;;5030615;28;20497;-61
2023/10/27 02:20:22;;;;;;;6.25;1.83;;;10.20;99.90;;;;;;5031039;28;20084;-60
2023/10/27 02:22:47;;;;;;;5.38;1.27;;;10.20;99.90;;;;;;5030583;28;20033;-61
2023/10/27 02:25:13;;;;;;;3.50;1.23;;;10.30;99.90;;;;;;5030884;28;20026;-60
2023/10/27 02:27:40;;;;;;;2.72;1.35;;;10.30;99.90;;;;;;5030521;28;20175;-60
2023/10/27 02:30:07;;;;;;;3.25;1.20;;;10.30;99.90;;;;;;5031215;28;20041;-60
2023/10/27 02:32:33;;;;;;;5.75;1.42;;;10.30;99.90;;;;;;5030509;28;20550;-61
2023/10/27 02:34:58;;;;;;;3.15;1.00;;;10.30;99.90;;;;;;5030483;28;20068;-61
2023/10/27 02:37:24;;;;;;;2.38;1.25;;;10.30;99.90;;;;;;5030315;28;20412;-61
2023/10/27 02:39:50;;;;;;;1.92;1.02;;;10.40;99.90;;;;;;5030442;28;20023;-61
2023/10/27 02:42:15;;;;;;;4.45;1.00;;;10.40;99.90;;;;;;5030653;28;20392;-60
2023/10/27 02:44:42;;;;;;;3.35;1.48;;;10.40;99.90;;;;;;5030475;28;20076;-61
2023/10/27 02:47:08;;;;;;;2.88;0.88;;;10.50;99.90;;;;;;5030463;28;20057;-62
2023/10/27 02:49:33;;;;;;;4.85;1.17;;;10.50;99.90;;;;;;5030515;28;20036;-59
2023/10/27 02:51:59;;;;;;;4.72;1.10;;;10.60;99.90;;;;;;5030066;28;20093;-61
2023/10/27 02:54:25;;;;;;;3.08;1.50;;;10.60;99.90;;;;;;5030690;28;20060;-60
2023/10/27 02:56:51;;;;;;;2.47;0.90;;;10.60;99.90;;;;;;5030361;28;20032;-59
2023/10/27 02:59:16;;;;;;;6.05;1.33;;;10.60;99.90;;;;;;5030166;28;20096;-60
2023/10/27 03:01:45;;;;;;;2.75;1.45;;;10.60;99.90;;;;;;5030321;28;20079;-61
2023/10/27 03:04:12;;;;;;;5.25;1.27;;;10.60;99.90;;;;;;5030416;28;20017;-59
2023/10/27 03:06:38;;;;;;;2.45;1.08;;;10.60;99.90;;;;;;5030313;28;20029;-58
2023/10/27 03:09:04;;;;;;;4.63;1.15;;;10.60;99.90;;;;;;5030354;28;20032;-59
2023/10/27 03:11:30;;;;;;;5.18;1.65;;;10.70;99.90;;;;;;5030512;28;20033;-51
2023/10/27 03:13:55;;;;;;;3.90;1.10;;;10.80;99.90;;;;;;5030201;28;20101;-55
2023/10/27 03:16:22;;;;;;;5.10;1.10;;;10.80;99.90;;;;;;5030269;28;20029;-60
2023/10/27 03:18:48;;;;;;;2.53;0.93;;;10.80;99.90;;;;;;5029932;28;20030;-59
2023/10/27 03:21:14;;;;;;;6.75;1.67;;;10.80;99.90;;;;;;5030097;28;20108;-60
2023/10/27 03:23:39;;;;;;;2.60;0.90;;;10.80;99.90;;;;;;5032437;28;20160;-53
2023/10/27 03:26:05;;;;;;;2.20;1.10;;;10.80;99.90;;;;;;5034029;28;20022;-57
2023/10/27 03:28:31;;;;;;;2.08;1.10;;;10.80;99.90;;;;;;5033917;28;20118;-59
2023/10/27 03:30:57;;;;;;;2.15;0.90;;;10.80;99.90;;;;;;5033785;28;20036;-59
2023/10/27 03:33:22;;;;;;;5.00;1.30;;;10.70;99.90;;;;;;5033757;28;20610;-56
2023/10/27 03:35:48;;;;;;;2.35;1.25;;;10.70;99.90;;;;;;5033493;28;20481;-60
2023/10/27 03:38:14;;;;;;;2.78;0.85;;;10.70;99.90;;;;;;5033399;28;20028;-58
2023/10/27 03:40:41;;;;;;;2.47;0.80;;;10.80;99.90;;;;;;5033754;28;20022;-60
2023/10/27 03:43:06;;;;;;;6.22;0.95;;;10.80;99.90;;;;;;5033410;28;20152;-59
2023/10/27 03:45:34;;;;;;;3.58;1.00;;;10.80;99.90;;;;;;5033686;28;20450;-59
2023/10/27 03:47:59;;;;;;;7.13;2.28;;;10.80;99.90;;;;;;5033447;28;20017;-60
2023/10/27 03:50:25;;;;;;;2.28;0.85;;;10.80;99.90;;;;;;5033473;28;20476;-58
2023/10/27 03:52:51;;;;;;;1.05;0.75;;;10.80;99.90;;;;;;5033337;28;20503;-60
2023/10/27 03:55:16;;;;;;;5.10;1.15;;;10.80;99.90;;;;;;5033366;28;20108;-60
2023/10/27 03:57:42;;;;;;;2.00;0.88;;;10.70;99.90;;;;;;5033282;28;20037;-61
2023/10/27 04:00:08;;;;;;;4.70;0.85;;;10.70;99.90;;;;;;5033035;28;20046;-56
2023/10/27 04:02:34;;;;;;;3.75;0.80;;;10.70;99.90;;;;;;5033256;28;20025;-60
2023/10/27 04:05:00;;;;;;;2.97;0.88;;;10.70;99.90;;;;;;5033161;28;20083;-61
2023/10/27 04:07:27;;;;;;;4.32;0.98;;;10.70;99.90;;;;;;5033059;28;20037;-59
2023/10/27 04:09:52;;;;;;;5.80;1.27;;;10.70;99.90;;;;;;5033244;28;20025;-59
2023/10/27 04:12:18;;;;;;;3.28;1.10;;;10.70;99.90;;;;;;5032930;28;20018;-49
2023/10/27 04:14:44;;;;;;;1.80;1.00;;;10.70;99.90;;;;;;5033072;28;20439;-55
2023/10/27 04:17:09;;;;;;;4.68;1.38;;;10.70;99.90;;;;;;5032884;28;20018;-48
2023/10/27 04:19:35;;;;;;;2.95;0.80;;;10.70;99.90;;;;;;5032872;28;20037;-59
2023/10/27 04:22:01;;;;;;;3.35;1.05;;;10.70;99.90;;;;;;5032969;28;20532;-49
2023/10/27 04:24:27;;;;;;;0.95;0.77;;;10.70;99.90;;;;;;5032574;28;20079;-60
2023/10/27 04:26:52;;;;;;;2.65;1.08;;;10.70;99.90;;;;;;5032953;28;20021;-60
2023/10/27 04:29:18;;;;;;;5.35;1.25;;;10.70;99.90;;;;;;5032630;28;20472;-61
2023/10/27 04:31:44;;;;;;;3.88;0.82;;;10.70;99.90;;;;;;5032760;28;20029;-58
2023/10/27 04:34:10;;;;;;;3.58;0.73;;;10.60;99.90;;;;;;5032313;28;20029;-51
2023/10/27 04:36:36;;;;;;;2.22;0.90;;;10.70;99.90;;;;;;5032805;28;20029;-59
2023/10/27 04:39:03;;;;;;;2.20;1.05;;;10.70;99.90;;;;;;5032316;28;20044;-58
2023/10/27 04:41:30;;;;;;;2.22;1.02;;;10.80;99.90;;;;;;5032581;28;20122;-54
2023/10/27 04:43:56;;;;;;;2.83;0.75;;;10.80;99.90;;;;;;5032516;28;20040;-57
2023/10/27 04:46:22;;;;;;;3.20;1.00;;;10.80;99.90;;;;;;5032371;28;20385;-52
2023/10/27 04:48:48;;;;;;;3.95;0.90;;;10.70;99.90;;;;;;5032513;28;20022;-59
2023/10/27 04:51:13;;;;;;;1.42;0.80;;;10.80;99.90;;;;;;5032328;28;20037;-54
2023/10/27 04:53:39;;;;;;;3.20;0.80;;;10.70;99.90;;;;;;5032478;28;20021;-55
2023/10/27 04:56:05;;;;;;;3.22;1.02;;;10.70;99.90;;;;;;5032283;28;20480;-50
2023/10/27 04:58:30;;;;;;;2.70;0.75;;;10.70;99.90;;;;;;5032092;28;20049;-55
2023/10/27 05:00:56;;;;;;;4.32;1.00;;;10.80;99.90;;;;;;5014464;28;20033;-49
2023/10/27 05:03:21;;;;;;;3.22;1.20;;;10.70;99.90;;;;;;5031995;28;20104;-57
2023/10/27 05:05:47;;;;;;;0.98;0.70;;;10.80;99.90;;;;;;5032246;28;20026;-61
2023/10/27 05:08:13;;;;;;;1.20;0.70;;;10.80;99.90;;;;;;5032107;28;20042;-58
2023/10/27 05:10:40;;;;;;;2.10;0.77;;;10.70;99.90;;;;;;5031966;28;20033;-54
2023/10/27 05:13:06;;;;;;;2.53;1.02;;;10.70;99.90;;;;;;5031993;28;20072;-58
2023/10/27 05:15:32;;;;;;;3.92;1.00;;;10.70;99.90;;;;;;5031811;28;20021;-57
2023/10/27 05:18:04;;;;;;;3.20;0.93;;;10.70;99.90;;;;;;5031733;28;20120;-60
2023/10/27 05:20:38;;;;;;;3.53;0.98;;;10.70;99.90;;;;;;5031982;28;20056;-59
2023/10/27 05:23:04;;;;;;;1.50;0.80;;;10.70;99.90;;;;;;5031999;28;20025;-60
2023/10/27 05:25:30;;;;;;;1.35;0.90;;;10.70;99.90;;;;;;5031678;28;20021;-60
2023/10/27 05:27:55;;;;;;;1.08;0.82;;;10.80;99.90;;;;;;5031710;28;20025;-60
2023/10/27 05:30:21;;;;;;;1.13;0.80;;;10.80;99.90;;;;;;5031654;28;20043;-60
2023/10/27 05:32:46;;;;;;;2.40;0.77;;;10.70;99.90;;;;;;5031598;28;20029;-61
2023/10/27 05:35:12;;;;;;;2.03;0.98;;;10.70;99.90;;;;;;5031865;28;20045;-60
2023/10/27 05:37:38;;;;;;;4.63;1.42;;;10.70;99.90;;;;;;5031437;28;20026;-61
2023/10/27 05:40:04;;;;;;;2.70;1.10;;;10.60;99.90;;;;;;5031587;28;20029;-60
2023/10/27 05:42:30;;;;;;;2.38;0.98;;;10.60;99.90;;;;;;5031274;28;20033;-62
2023/10/27 05:44:56;;;;;;;6.68;1.17;;;10.60;99.90;;;;;;5030994;28;20034;-60
2023/10/27 05:47:21;;;;;;;5.30;1.13;;;10.50;99.90;;;;;;5031278;28;20104;-60
2023/10/27 05:49:47;;;;;;;1.88;0.90;;;10.50;99.90;;;;;;5031642;28;20349;-59
2023/10/27 05:52:14;;;;;;;1.52;1.00;;;10.50;99.90;;;;;;5031060;28;20024;-60
2023/10/27 05:54:40;;;;;;;5.40;1.42;;;10.60;99.90;;;;;;5031419;28;20063;-59
2023/10/27 05:57:08;;;;;;;2.83;1.05;;;10.50;99.90;;;;;;5031082;28;20397;-61
2023/10/27 05:59:34;;;;;;;1.38;0.82;;;10.50;99.90;;;;;;5031060;28;20507;-59
2023/10/27 06:02:00;;;;;;;1.35;0.82;;;10.50;99.90;;;;;;5031266;28;20033;-60
2023/10/27 06:04:27;;;;;;;1.73;0.90;;;10.40;99.90;;;;;;5031023;28;20491;-60
2023/10/27 06:06:52;;;;;;;2.33;1.00;;;10.40;99.90;;;;;;5031069;28;20025;-60
2023/10/27 06:09:18;;;;;;;3.08;1.10;;;10.40;99.90;;;;;;5031072;28;20028;-60
2023/10/27 06:11:44;;;;;;;4.85;1.30;;;10.40;99.90;;;;;;5031010;28;20498;-60
2023/10/27 06:14:09;;;;;;;3.28;1.75;;;10.40;99.90;;;;;;5030748;28;20029;-60
2023/10/27 06:16:35;;;;;;;5.43;1.45;;;10.40;99.90;;;;;;5031020;28;20669;-59
2023/10/27 06:19:01;;;;;;;1.42;0.95;;;10.30;99.90;;;;;;5030726;28;20041;-61
2023/10/27 06:21:27;;;;;;;2.13;1.05;;;10.40;99.90;;;;;;5030940;28;20104;-59
2023/10/27 06:23:53;;;;;;;2.88;1.20;;;10.50;99.90;;;;;;5030758;28;20071;-61
2023/10/27 06:26:18;;;;;;;4.90;1.88;;;10.60;99.90;;;;;;5030688;28;20021;-58
2023/10/27 06:28:44;;;;;;;1.73;1.10;;;10.50;99.90;;;;;;5030780;28;20314;-59
2023/10/27 06:31:09;;;;;;;2.45;1.13;;;10.50;99.90;;;;;;5030532;28;20033;-60
2023/10/27 06:33:36;;;;;;;1.30;0.77;;;10.60;99.90;;;;;;5030820;28;20052;-60
2023/10/27 06:36:03;;;;;;;2.67;0.90;;;10.60;99.90;;;;;;5030625;28;20026;-59
2023/10/27 06:38:29;;;;;;;1.95;1.08;;;10.60;99.90;;;;;;5030650;28;20400;-59
2023/10/27 06:40:55;;;;;;;3.83;1.08;;;10.70;99.90;;;;;;5030513;28;20464;-59
2023/10/27 06:43:21;;;;;;;4.00;0.98;;;10.80;99.90;;;;;;5030633;28;20079;-58
2023/10/27 06:45:47;;;;;;;2.58;0.80;;;10.80;99.90;;;;;;5030590;28;20117;-55
2023/10/27 06:48:12;;;;;;;3.33;0.90;;;10.80;99.90;;;;;;5030517;28;20040;-54
2023/10/27 06:50:38;;;;;;;0.45;0.40;;;10.80;99.90;;;;;;5030528;28;20052;-56
2023/10/27 06:53:03;;;;;;;2.55;0.70;;;10.90;99.90;;;;;;5030302;28;20029;-59
2023/10/27 06:55:29;;;;;;;2.65;0.88;;;10.90;99.90;;;;;;5029928;28;20014;-56
2023/10/27 06:57:55;;;;;;;1.30;0.65;;;11.00;99.90;;;;;;5026822;28;20404;-58
2023/10/27 07:00:20;;;;;;;1.05;0.52;;;11.00;99.90;;;;;;5027807;28;20036;-58
2023/10/27 07:02:47;;;;;;;0.82;0.70;;;11.00;99.90;;;;;;5034281;28;20040;-59
2023/10/27 07:05:16;;;;;;;1.48;0.60;;;11.00;99.90;;;;;;5034223;28;20515;-58
2023/10/27 07:07:43;;;;;;;0.50;0.50;;;11.00;99.90;;;;;;5034252;28;20037;-58
2023/10/27 07:10:09;;;;;;;1.17;0.60;;;11.00;99.90;;;;;;5034371;28;20076;-57
2023/10/27 07:12:35;;;;;;;1.48;0.60;;;10.90;99.90;;;;;;5034033;28;20025;-55
2023/10/27 07:15:01;;;;;;;1.10;0.55;;;10.90;99.90;;;;;;5033911;28;20030;-60
2023/10/27 07:17:26;;;;;;;1.08;0.57;;;11.00;99.90;;;;;;5033905;28;20203;-60
2023/10/27 07:19:52;;;;;;;2.28;0.70;;;10.90;99.90;;;;;;5033948;28;20036;-59
2023/10/27 07:22:19;;;;;;;4.88;0.90;;;10.90;99.90;;;;;;5033856;28;20049;-56
2023/10/27 07:24:45;;;;;;;2.92;0.80;;;11.00;99.90;;;;;;5033820;28;20099;-57
2023/10/27 07:27:11;;;;;;;2.53;0.50;;;11.00;99.90;;;;;;5033836;28;20029;-57
2023/10/27 07:29:36;;;;;;;3.45;0.50;;;11.00;99.90;;;;;;5026159;28;20057;-53
2023/10/27 07:32:03;;;;;;;2.72;0.63;;;10.90;99.90;;;;;;5033431;28;20116;-61
2023/10/27 07:34:29;;;;;;;1.25;0.50;;;11.00;99.90;;;;;;5033471;28;20101;-63
2023/10/27 07:36:55;;;;;;;2.00;0.65;;;11.00;99.90;;;;;;5033685;28;20116;-61
2023/10/27 07:39:22;;;;;;;1.52;0.70;;;11.00;99.90;;;;;;5033497;28;20111;-59
2023/10/27 07:41:48;;;;;;;1.50;0.70;;;11.00;99.90;;;;;;5033213;28;20420;-58
2023/10/27 07:44:14;;;;;;;1.33;0.63;;;11.10;99.90;;;;;;5033556;28;20087;-58
2023/10/27 07:46:40;;;;;;;7.65;0.90;;;11.10;99.90;;;;;;5033508;28;20022;-60
2023/10/27 07:49:06;;;;;;;2.28;0.52;;;11.10;99.90;;;;;;5033410;28;20399;-60
2023/10/27 07:51:32;;;;;;;3.80;0.50;;;11.10;99.90;;;;;;5033245;28;20025;-59
2023/10/27 07:53:58;;;;;;;1.75;0.50;;;11.10;99.90;;;;;;5033620;28;20025;-57
2023/10/27 07:56:23;;;;;;;2.03;0.80;;;11.10;99.90;;;;;;5033507;28;20025;-60
2023/10/27 07:58:49;;;;;;;2.30;0.60;;;11.00;99.90;;;;;;5033231;28;20045;-60
2023/10/27 08:01:15;;;;;;;4.07;0.80;;;11.00;99.90;;;;;;5033514;28;20025;-60
2023/10/27 08:03:41;;;;;;;0.40;0.40;;;11.00;99.90;;;;;;5033500;28;21747;-61
2023/10/27 08:06:08;;;;;;;1.25;0.80;;;11.00;99.90;;;;;;5033357;28;20396;-62
2023/10/27 08:08:34;;;;;;;2.83;0.90;;;10.90;99.90;;;;;;5031701;28;20373;-59
2023/10/27 08:11:00;;;;;;;0.80;0.50;;;10.90;99.90;;;;;;5031866;28;20021;-61
2023/10/27 08:13:26;;;;;;;1.90;0.50;;;10.80;99.90;;;;;;5033383;28;20025;-60
2023/10/27 08:15:52;;;;;;;2.40;0.70;;;10.80;99.90;;;;;;5014839;28;20086;-59
2023/10/27 08:18:18;;;;;;;1.27;0.50;;;10.80;99.90;;;;;;5032623;28;20061;-56
2023/10/27 08:20:44;;;;;;;2.75;0.65;;;10.80;99.90;;;;;;5032846;28;20025;-59
2023/10/27 08:23:09;;;;;;;0.68;0.52;;;10.80;99.90;;;;;;5032924;28;20033;-58
2023/10/27 08:25:36;;;;;;;0.98;0.40;;;10.90;99.90;;;;;;5032720;28;20022;-57
2023/10/27 08:28:03;;;;;;;1.52;0.40;;;10.90;99.90;;;;;;5033024;28;20033;-56
2023/10/27 08:30:28;;;;;;;0.40;0.40;;;10.90;99.90;;;;;;5032614;28;20471;-53
2023/10/27 08:32:54;;;;;;;3.40;0.50;;;10.90;99.90;;;;;;5032848;28;20100;-56
2023/10/27 08:35:19;;;;;;;0.63;0.40;;;10.90;99.90;;;;;;5032727;28;20473;-58
2023/10/27 08:37:45;;;;;;;1.20;0.47;;;10.90;99.90;;;;;;5032421;28;20029;-58
2023/10/27 08:40:12;;;;;;;1.67;0.40;;;10.80;99.90;;;;;;5032265;28;20489;-58
2023/10/27 08:42:40;;;;;;;4.32;0.55;;;10.80;99.90;;;;;;5032662;28;20068;-55
2023/10/27 08:45:07;;;;;;;2.00;0.43;;;10.90;99.90;;;;;;5032029;28;20461;-57
2023/10/27 08:47:34;;;;;;;0.70;0.45;;;10.90;99.90;;;;;;5032513;28;20071;-59
2023/10/27 08:50:01;;;;;;;2.05;0.30;;;11.00;99.90;;;;;;5032085;28;20108;-55
2023/10/27 08:52:28;;;;;;;0.52;0.30;;;11.00;99.90;;;;;;5032289;28;20030;-54
2023/10/27 08:54:54;;;;;;;0.75;0.38;;;11.10;99.90;;;;;;5031966;28;20025;-56
2023/10/27 08:57:19;;;;;;;2.15;0.50;;;11.20;99.90;;;;;;5031710;28;20496;-58
2023/10/27 08:59:46;;;;;;;1.08;0.43;;;11.20;99.90;;;;;;5032005;28;20064;-58
2023/10/27 09:02:11;;;;;;;0.73;0.35;;;11.30;99.90;;;;;;5032096;28;20504;-57
2023/10/27 09:04:43;;;;;;;0.80;0.30;;;11.30;99.90;;;;;;5032055;28;20079;-55
2023/10/27 09:07:08;;;;;;;1.58;0.40;;;11.30;99.90;;;;;;5031897;28;20093;-55
2023/10/27 09:09:35;;;;;;;1.13;0.40;;;11.30;99.90;;;;;;5031980;28;20112;-54
2023/10/27 09:12:00;;;;;;;0.50;0.30;;;11.40;99.90;;;;;;5032207;28;20030;-55
2023/10/27 09:14:30;;;;;;;0.85;0.22;;;11.50;99.90;;;;;;5030689;28;20674;-53
2023/10/27 09:17:06;;;;;;;1.77;0.43;;;11.50;99.90;;;;;;5029797;28;20144;-56
2023/10/27 09:19:32;;;;;;;1.60;0.40;;;11.60;99.90;;;;;;5029566;28;20073;-53
2023/10/27 09:21:58;;;;;;;1.35;0.30;;;11.60;99.90;;;;;;5028913;28;20017;-55
2023/10/27 09:24:28;;;;;;;2.92;0.45;;;11.70;99.90;;;;;;5031309;28;20430;-52
2023/10/27 09:26:56;;;;;;;0.30;0.30;;;11.80;99.90;;;;;;5031501;28;20057;-59
2023/10/27 09:29:22;;;;;;;0.28;0.28;;;12.00;99.90;;;;;;5029479;28;20036;-53
2023/10/27 09:31:48;;;;;;;0.80;0.35;;;12.20;99.90;;;;;;5030555;28;20037;-50
2023/10/27 09:34:19;;;;;;;2.47;0.40;;;12.60;99.90;;;;;;5031459;28;20029;-57
2023/10/27 09:36:46;;;;;;;0.68;0.30;;;13.40;99.90;;;;;;5031491;28;20506;-59
2023/10/27 09:39:16;;;;;;;3.88;0.50;;;14.10;99.90;;;;;;5031553;28;20037;-56
2023/10/27 09:41:48;;;;;;;0.25;0.20;;;14.70;99.90;;;;;;5031570;28;20026;-57
2023/10/27 09:44:16;;;;;;;0.55;0.30;;;15.60;99.90;;;;;;5031402;28;20025;-57
2023/10/27 09:46:54;;;;;;;0.35;0.30;;;16.30;99.90;;;;;;5031523;28;20495;-54
2023/10/27 09:49:29;;;;;;;0.20;0.20;;;16.90;99.90;;;;;;5031267;28;20545;-55
2023/10/27 09:51:59;;;;;;;0.73;0.20;;;17.30;99.90;;;;;;5031261;28;20396;-56
2023/10/27 09:54:29;;;;;;;0.28;0.28;;;17.00;99.90;;;;;;5031244;28;20025;-58
2023/10/27 09:56:55;;;;;;;0.90;0.30;;;16.50;99.90;;;;;;5030895;28;20051;-58
2023/10/27 09:59:21;;;;;;;0.20;0.20;;;16.10;99.90;;;;;;5030852;28;20068;-56
2023/10/27 10:01:47;;;;;;;0.52;0.20;;;15.70;99.90;;;;;;5031055;28;20025;-58
2023/10/27 10:04:13;;;;;;;0.30;0.20;;;15.50;99.90;;;;;;5031061;28;20068;-58
2023/10/27 10:06:39;;;;;;;2.63;0.43;;;15.40;99.90;;;;;;5031010;28;20017;-53
2023/10/27 10:09:08;;;;;;;0.30;0.20;;;15.60;99.90;;;;;;5030925;28;20025;-54
2023/10/27 10:11:46;;;;;;;0.77;0.30;;;16.30;99.90;;;;;;5030863;28;20029;-63
2023/10/27 10:14:43;;;;;;;0.98;0.30;;;17.20;99.90;;;;;;5031104;28;20104;-58
2023/10/27 10:17:09;;;;;;;2.63;0.40;;;18.10;99.90;;;;;;5030623;28;20029;-59
2023/10/27 10:19:51;;;;;;;0.40;0.30;;;18.80;99.90;;;;;;5030665;28;20037;-54
2023/10/27 10:22:39;;;;;;;0.75;0.30;;;19.10;99.90;;;;;;5030684;28;20032;-55
2023/10/27 10:25:23;;;;;;;0.63;0.20;;;18.90;99.90;;;;;;5030840;28;20056;-46
2023/10/27 10:28:07;;;;;;;0.32;0.25;;;18.60;99.90;;;;;;5030677;28;20029;-51
2023/10/27 10:30:43;;;;;;;3.35;0.32;;;19.10;99.90;;;;;;5030700;28;20040;-58
2023/10/27 10:33:27;;;;;;;0.90;0.50;;;20.40;99.90;;;;;;5030677;28;20025;-57
2023/10/27 10:36:21;;;;;;;3.58;0.60;;;21.60;99.90;;;;;;5030488;28;20032;-56
2023/10/27 10:39:03;;;;;;;2.85;0.40;;;22.80;99.90;;;;;;5030332;28;20393;-52
2023/10/27 10:41:41;;;;;;;1.25;0.35;;;23.30;99.90;;;;;;5030668;28;20029;-53
2023/10/27 10:44:12;;;;;;;1.45;0.35;;;23.80;99.90;;;;;;5030268;28;20026;-57
2023/10/27 10:46:37;;;;;;;2.35;0.40;;;23.60;99.90;;;;;;5016782;28;20045;-55
2023/10/27 10:49:03;;;;;;;0.63;0.30;;;22.60;99.90;;;;;;5030194;28;20033;-53
2023/10/27 10:51:30;;;;;;;2.35;0.30;;;22.10;99.90;;;;;;5030272;28;20021;-47
2023/10/27 10:53:56;;;;;;;2.38;0.45;;;22.60;99.90;;;;;;5030512;28;20080;-46
2023/10/27 10:56:23;;;;;;;1.05;0.30;;;23.40;99.90;;;;;;5030460;28;20018;-45
2023/10/27 10:58:48;;;;;;;0.68;0.30;;;23.90;99.90;;;;;;5030252;28;20802;-52
2023/10/27 11:01:21;;;;;;;1.92;0.30;;;24.40;99.90;;;;;;5030350;28;20037;-50
2023/10/27 11:03:49;;;;;;;2.33;0.30;;;24.30;99.90;;;;;;5030114;28;20037;-50
2023/10/27 11:06:18;;;;;;;2.85;0.40;;;22.70;99.90;;;;;;5030223;28;20026;-50
2023/10/27 11:08:45;;;;;;;0.65;0.47;;;21.10;99.90;;;;;;5030051;28;20021;-54
2023/10/27 11:11:16;;;;;;;0.73;0.30;;;20.30;99.90;;;;;;5030258;28;20112;-49
2023/10/27 11:13:57;;;;;;;0.55;0.30;;;20.70;99.90;;;;;;5029993;28;20177;-57
2023/10/27 11:16:24;;;;;;;0.43;0.30;;;20.50;99.90;;;;;;5029976;28;20152;-46
2023/10/27 11:18:59;;;;;;;1.77;0.30;;;19.80;99.90;;;;;;5029837;28;20045;-52
2023/10/27 11:21:27;;;;;;;0.20;0.20;;;19.20;99.90;;;;;;5029897;28;20035;-54
2023/10/27 11:23:53;;;;;;;2.05;0.40;;;18.50;99.90;;;;;;5029905;28;20036;-55
2023/10/27 11:26:41;;;;;;;0.85;0.40;;;18.80;99.90;;;;;;5030164;28;20026;-58
2023/10/27 11:29:08;;;;;;;1.02;0.52;;;19.80;99.90;;;;;;5028623;28;20064;-56
2023/10/27 11:31:40;;;;;;;1.27;0.40;;;20.20;99.90;;;;;;5029459;28;20045;-58
2023/10/27 11:34:07;;;;;;;0.70;0.30;;;20.20;99.90;;;;;;5029781;28;20481;-57
2023/10/27 11:36:38;;;;;;;0.38;0.30;;;20.00;99.90;;;;;;5029966;28;20442;-60
2023/10/27 11:39:33;;;;;;;1.45;0.40;;;19.40;99.90;;;;;;5029558;28;20038;-53
2023/10/27 11:42:00;;;;;;;1.67;0.40;;;18.40;99.90;;;;;;5001865;28;20113;-57
2023/10/27 11:44:31;;;;;;;0.45;0.22;;;17.60;99.90;;;;;;5031347;28;20038;-59
2023/10/27 11:46:58;;;;;;;2.20;0.50;;;17.10;99.90;;;;;;5033457;28;20032;-57
2023/10/27 11:49:25;;;;;;;1.48;0.40;;;16.90;99.90;;;;;;5032978;28;20037;-50
2023/10/27 11:51:54;;;;;;;0.55;0.30;;;16.70;99.90;;;;;;5033292;28;20427;-52
2023/10/27 11:54:20;;;;;;;0.80;0.38;;;16.80;99.90;;;;;;5033435;28;20033;-48
2023/10/27 11:56:47;;;;;;;1.75;0.40;;;17.10;99.90;;;;;;5033267;28;20024;-54
2023/10/27 11:59:14;;;;;;;1.85;0.50;;;17.90;99.90;;;;;;5025292;28;20064;-59
2023/10/27 12:01:39;;;;;;;2.42;0.32;;;18.60;99.90;;;;;;5026827;28;20117;-58
2023/10/27 12:04:10;;;;;;;4.85;0.77;;;19.30;99.90;;;;;;5032915;28;20104;-53
2023/10/27 12:06:39;;;;;;;3.28;0.40;;;20.80;99.90;;;;;;5035880;28;20025;-54
2023/10/27 12:09:05;;;;;;;3.17;0.45;;;22.00;99.90;;;;;;5031679;28;20542;-52
2023/10/27 12:11:31;;;;;;;1.55;0.55;;;22.90;99.90;;;;;;5039144;28;20025;-52
2023/10/27 12:13:57;;;;;;;4.45;0.60;;;23.50;99.90;;;;;;5034713;28;20021;-53
2023/10/27 12:16:27;;;;;;;4.35;0.45;;;23.70;99.90;;;;;;5032956;28;20025;-58
2023/10/27 12:18:56;;;;;;;3.75;0.60;;;23.60;99.90;;;;;;5032538;28;20037;-52
2023/10/27 12:21:25;;;;;;;;;;;23.50;99.90;;;;;;5029693;28;20045;-50
2023/10/27 12:23:52;;;;;;;2.83;0.70;;;23.00;99.90;;;;;;5032614;28;19905;-58
2023/10/27 12:26:18;;;;;;;1.95;0.60;;;22.30;99.90;;;;;;5032441;28;20063;-55
2023/10/27 12:28:44;;;;;;;3.08;0.65;;;21.30;99.90;;;;;;5032554;28;20415;-58
2023/10/27 12:31:10;;;;;;;2.40;0.55;;;20.20;99.90;;;;;;5032958;28;20172;-61
2023/10/27 12:33:35;;;;;;;1.65;0.40;;;19.30;99.90;;;;;;5032667;28;20029;-58
2023/10/27 12:36:09;;;;;;;3.58;0.60;;;18.60;99.90;;;;;;5032687;28;20017;-57
2023/10/27 12:38:35;;;;;;;1.13;0.40;;;17.80;99.90;;;;;;5022778;28;20037;-58
2023/10/27 12:41:00;;;;;;;1.90;0.52;;;17.40;99.90;;;;;;5031716;28;20442;-56
2023/10/27 12:43:26;;;;;;;5.45;0.60;;;17.00;99.90;;;;;;5032401;28;20021;-53
2023/10/27 12:45:52;;;;;;;5.35;0.73;;;16.90;99.90;;;;;;5032208;28;20030;-50
2023/10/27 12:48:17;;;;;;;5.72;0.77;;;17.30;99.90;;;;;;5032393;28;20726;-56